Hull, Texas
Current Conditions -  °F | °C
As of 5:55 AM on Monday 22 Dec 2014 (Local Time) from K6R3 Reporting Station
Haze Haze  
Wind Chill: 58°   Ceiling: 300
Heat Index: 58°   Visibility: 4mi
Dew Point: 57°   Wind: 3mph
Humidity: 98%   Direction: 150°SSE
Pressure: 29.77"   Gusts: NA
Location:  30.15°N, 94.64°W
Report Text: K6R3 221155Z AUTO 15003KT 4SM BR OVC003 14/14 A2977 RMK AO2 T01440141 10144 20118
Loading
Personal Weather Stations






























Interactive Weather Map New forecast layout! Learn more

10-Day Weather Forecast

Advertisements
Track Severe Weather on mobile